createdAt,value
2017-12-08T00:01:11.039Z,10.87
2017-12-08T00:03:37.271Z,11.00
2017-12-08T00:06:03.546Z,11.90
2017-12-08T00:08:30.521Z,12.13
2017-12-08T00:10:56.760Z,11.50
2017-12-08T00:13:23.015Z,11.20
2017-12-08T00:15:49.273Z,11.77
2017-12-08T00:18:16.207Z,10.23
2017-12-08T00:20:43.172Z,11.63
2017-12-08T00:23:09.433Z,13.10
2017-12-08T00:25:35.653Z,11.10
2017-12-08T00:28:01.953Z,11.43
2017-12-08T00:30:28.257Z,12.13
2017-12-08T00:32:55.225Z,12.30
2017-12-08T00:35:22.248Z,11.57
2017-12-08T00:37:49.214Z,11.30
2017-12-08T00:40:16.172Z,12.00
2017-12-08T00:42:42.431Z,11.50
2017-12-08T00:45:08.683Z,12.10
2017-12-08T00:47:35.678Z,13.40
2017-12-08T00:50:01.926Z,11.70
2017-12-08T00:52:28.129Z,12.37
2017-12-08T00:54:55.069Z,11.17
2017-12-08T00:57:22.094Z,11.50
2017-12-08T00:59:48.369Z,12.03
2017-12-08T01:02:14.621Z,11.90
2017-12-08T01:04:40.857Z,11.83
2017-12-08T01:07:07.177Z,10.50
2017-12-08T01:09:33.473Z,11.03
2017-12-08T01:11:59.664Z,11.27
2017-12-08T01:22:03.072Z,11.40
2017-12-08T01:24:29.279Z,11.87
2017-12-08T01:26:55.520Z,10.50
2017-12-08T01:29:21.718Z,10.47
2017-12-08T01:31:48.639Z,9.50
2017-12-08T01:34:14.917Z,10.40
2017-12-08T01:36:41.114Z,9.90
2017-12-08T01:39:08.070Z,9.90
2017-12-08T01:41:35.041Z,10.80
2017-12-08T01:44:01.245Z,9.97
2017-12-08T01:46:28.207Z,10.57
2017-12-08T01:48:54.489Z,8.60
2017-12-08T01:51:21.498Z,9.30
2017-12-08T01:53:47.779Z,9.47
2017-12-08T01:56:14.816Z,9.17
2017-12-08T01:58:41.125Z,8.80
2017-12-08T02:01:07.405Z,8.80
2017-12-08T02:03:33.862Z,9.17
2017-12-08T02:06:00.161Z,9.70
2017-12-08T02:08:27.239Z,8.87
2017-12-08T02:10:53.570Z,9.00
2017-12-08T02:13:19.855Z,9.40
2017-12-08T02:15:46.897Z,8.60
2017-12-08T02:18:13.943Z,8.50
2017-12-08T02:20:40.280Z,8.50
2017-12-08T02:23:07.362Z,7.20
2017-12-08T02:25:33.710Z,8.63
2017-12-08T02:28:00.054Z,7.20
2017-12-08T02:30:26.382Z,8.17
2017-12-08T02:32:52.731Z,7.60
2017-12-08T02:35:19.020Z,8.47
2017-12-08T02:37:45.311Z,8.60
2017-12-08T02:40:12.392Z,7.13
2017-12-08T02:42:38.708Z,8.23
2017-12-08T02:45:04.978Z,7.20
2017-12-08T02:47:31.308Z,7.53
2017-12-08T02:49:57.635Z,8.43
2017-12-08T02:52:24.064Z,7.13
2017-12-08T02:54:51.420Z,7.50
2017-12-08T02:57:17.678Z,6.43
2017-12-08T02:59:44.771Z,6.50
2017-12-08T03:02:11.070Z,6.00
2017-12-08T03:04:37.387Z,7.70
2017-12-08T03:07:04.403Z,7.03
2017-12-08T03:09:30.718Z,7.17
2017-12-08T03:11:57.019Z,5.50
2017-12-08T03:14:24.152Z,5.17
2017-12-08T03:16:50.441Z,4.80
2017-12-08T03:19:16.716Z,4.27
2017-12-08T03:21:43.066Z,4.70
2017-12-08T03:24:10.099Z,4.73
2017-12-08T03:26:37.167Z,3.40
2017-12-08T03:29:03.476Z,3.77
2017-12-08T03:31:29.811Z,3.67
2017-12-08T03:33:56.851Z,3.10
2017-12-08T03:36:23.153Z,3.47
2017-12-08T03:38:49.463Z,4.30
2017-12-08T03:41:15.762Z,2.80
2017-12-08T03:43:42.816Z,3.20
2017-12-08T03:46:09.063Z,3.20
2017-12-08T03:48:35.371Z,3.40
2017-12-08T03:51:02.448Z,2.57
2017-12-08T03:53:28.779Z,2.83
2017-12-08T03:55:55.091Z,2.70
2017-12-08T03:58:21.407Z,2.60
2017-12-08T04:00:48.395Z,3.00
2017-12-08T04:03:14.730Z,2.83
2017-12-08T04:05:41.062Z,3.27
2017-12-08T04:08:07.355Z,2.43
2017-12-08T04:10:33.655Z,2.37
2017-12-08T04:12:59.967Z,2.07
2017-12-08T04:15:26.302Z,2.33
2017-12-08T04:17:52.619Z,2.97
2017-12-08T04:20:18.984Z,2.40
2017-12-08T04:22:45.262Z,2.50
2017-12-08T04:25:11.600Z,2.40
2017-12-08T04:27:37.898Z,2.50
2017-12-08T04:30:04.252Z,2.40
2017-12-08T04:32:30.574Z,2.30
2017-12-08T04:34:56.909Z,2.67
2017-12-08T04:37:23.217Z,2.80
2017-12-08T04:39:49.506Z,4.10
2017-12-08T04:42:16.631Z,5.80
2017-12-08T04:44:42.970Z,3.90
2017-12-08T04:47:09.285Z,3.10
2017-12-08T04:49:35.656Z,1.50
2017-12-08T04:52:02.666Z,2.70
2017-12-08T04:54:29.011Z,2.10
2017-12-08T04:56:55.323Z,1.80
2017-12-08T04:59:21.686Z,1.80
2017-12-08T05:01:47.958Z,1.50
2017-12-08T05:04:14.268Z,2.30
2017-12-08T05:06:41.325Z,1.90
2017-12-08T05:09:08.372Z,1.80
2017-12-08T05:11:35.487Z,1.87
2017-12-08T05:14:01.806Z,1.77
2017-12-08T05:16:28.164Z,1.90
2017-12-08T05:18:55.238Z,1.90
2017-12-08T05:21:22.268Z,2.07
2017-12-08T05:23:48.573Z,1.30
2017-12-08T05:26:14.882Z,1.80
2017-12-08T05:28:41.141Z,1.73
2017-12-08T05:31:08.232Z,1.90
2017-12-08T05:33:51.254Z,1.80
2017-12-08T05:36:17.673Z,1.40
2017-12-08T05:38:44.699Z,1.90
2017-12-08T05:41:11.022Z,1.80
2017-12-08T05:43:37.376Z,2.10
2017-12-08T05:46:04.412Z,1.63
2017-12-08T05:48:30.752Z,1.80
2017-12-08T05:50:57.811Z,1.67
2017-12-08T05:53:24.879Z,1.77
2017-12-08T05:55:51.191Z,2.20
2017-12-08T05:58:17.523Z,1.53
2017-12-08T06:00:44.566Z,1.70
2017-12-08T06:03:11.650Z,1.60
2017-12-08T06:05:37.991Z,1.77
2017-12-08T06:08:04.329Z,2.27
2017-12-08T06:10:30.655Z,1.90
2017-12-08T06:12:56.987Z,1.63
2017-12-08T06:15:23.315Z,2.17
2017-12-08T06:17:49.630Z,2.27
2017-12-08T06:20:15.947Z,2.60
2017-12-08T06:22:42.263Z,2.00
2017-12-08T06:25:09.302Z,2.10
2017-12-08T06:27:36.363Z,2.03
2017-12-08T06:30:02.712Z,3.20
2017-12-08T06:32:29.047Z,1.83
2017-12-08T06:34:55.359Z,1.90
2017-12-08T06:37:21.671Z,2.40
2017-12-08T06:39:48.765Z,3.63
2017-12-08T06:42:15.073Z,2.87
2017-12-08T06:44:41.386Z,3.03
2017-12-08T06:47:08.410Z,2.70
2017-12-08T06:49:34.755Z,2.23
2017-12-08T06:52:01.832Z,2.47
2017-12-08T06:54:28.168Z,2.13
2017-12-08T06:56:54.528Z,2.60
2017-12-08T06:59:20.822Z,2.47
2017-12-08T07:01:47.118Z,2.50
2017-12-08T07:04:14.158Z,2.73
2017-12-08T07:06:40.448Z,2.37
2017-12-08T07:09:06.804Z,1.70
2017-12-08T07:11:33.114Z,3.33
2017-12-08T07:13:59.471Z,2.50
2017-12-08T07:16:25.807Z,2.80
2017-12-08T07:18:52.120Z,4.30
2017-12-08T07:21:18.468Z,3.20
2017-12-08T07:23:45.537Z,3.80
2017-12-08T07:26:12.588Z,2.53
2017-12-08T07:28:39.639Z,2.90
2017-12-08T07:31:06.704Z,2.53
2017-12-08T07:33:32.990Z,3.30
2017-12-08T07:35:59.290Z,2.63
2017-12-08T07:38:25.627Z,2.70
2017-12-08T07:40:51.925Z,2.77
2017-12-08T07:43:18.309Z,3.00
2017-12-08T07:45:44.903Z,3.17
2017-12-08T07:48:11.203Z,4.07
2017-12-08T07:50:38.306Z,3.60
2017-12-08T07:53:04.602Z,4.13
2017-12-08T07:55:30.883Z,3.40
2017-12-08T07:57:57.183Z,2.97
2017-12-08T08:00:23.437Z,3.10
2017-12-08T08:02:49.763Z,3.30
2017-12-08T08:05:16.038Z,3.70
2017-12-08T08:07:43.051Z,3.47
2017-12-08T08:10:09.735Z,3.57
2017-12-08T08:12:36.947Z,5.67
2017-12-08T08:15:03.291Z,3.40
2017-12-08T08:17:29.624Z,3.13
2017-12-08T08:19:56.676Z,3.40
2017-12-08T08:22:23.711Z,4.13
2017-12-08T08:24:50.750Z,3.07
2017-12-08T08:27:17.107Z,2.60
2017-12-08T08:29:44.214Z,3.23
2017-12-08T08:32:10.490Z,2.80
2017-12-08T08:34:37.564Z,3.30
2017-12-08T08:37:03.865Z,4.73
2017-12-08T08:39:30.930Z,3.00
2017-12-08T08:41:57.265Z,3.13
2017-12-08T08:44:23.592Z,3.20
2017-12-08T08:46:49.903Z,2.80
2017-12-08T08:49:16.251Z,3.23
2017-12-08T08:51:42.570Z,3.00
2017-12-08T08:54:09.581Z,3.10
2017-12-08T08:56:36.731Z,3.47
2017-12-08T08:59:03.095Z,2.70
2017-12-08T09:01:30.202Z,3.67
2017-12-08T09:03:56.565Z,2.63
2017-12-08T09:06:23.633Z,2.80
2017-12-08T09:08:51.008Z,2.83
2017-12-08T09:11:17.414Z,2.73
2017-12-08T09:13:44.443Z,3.40
2017-12-08T09:16:10.791Z,3.00
2017-12-08T09:18:37.868Z,3.00
2017-12-08T09:21:04.194Z,4.37
2017-12-08T09:23:30.590Z,2.80
2017-12-08T09:25:57.747Z,3.17
2017-12-08T09:28:24.847Z,2.93
2017-12-08T09:30:51.228Z,3.33
2017-12-08T09:33:18.330Z,2.77
2017-12-08T09:35:44.630Z,3.77
2017-12-08T09:38:10.924Z,2.70
2017-12-08T09:40:37.982Z,3.40
2017-12-08T09:43:05.075Z,2.80
2017-12-08T09:45:31.391Z,2.97
2017-12-08T09:47:57.725Z,2.90
2017-12-08T09:50:24.029Z,3.13
2017-12-08T09:52:51.078Z,3.27
2017-12-08T09:55:18.152Z,3.00
2017-12-08T09:57:44.489Z,2.80
2017-12-08T10:00:10.832Z,3.30
2017-12-08T10:02:37.134Z,2.77
2017-12-08T10:05:03.469Z,3.67
2017-12-08T10:07:29.827Z,3.00
2017-12-08T10:09:56.155Z,2.87
2017-12-08T10:12:22.414Z,3.57
2017-12-08T10:14:48.771Z,3.93
2017-12-08T10:17:15.855Z,2.70
2017-12-08T10:19:42.187Z,2.63
2017-12-08T10:22:08.541Z,2.60
2017-12-08T10:24:34.879Z,3.10
2017-12-08T10:27:01.202Z,2.10
2017-12-08T10:29:27.527Z,2.63
2017-12-08T10:31:53.875Z,2.47
2017-12-08T10:34:20.223Z,2.20
2017-12-08T10:36:47.329Z,2.67
2017-12-08T10:39:13.661Z,2.40
2017-12-08T10:41:40.064Z,2.57
2017-12-08T10:44:06.392Z,2.60
2017-12-08T10:46:32.727Z,2.23
2017-12-08T10:48:59.635Z,2.80
2017-12-08T10:51:26.802Z,2.37
2017-12-08T10:53:53.886Z,2.50
2017-12-08T10:56:20.262Z,2.50
2017-12-08T10:58:46.550Z,2.47
2017-12-08T11:01:12.814Z,2.43
2017-12-08T11:03:39.146Z,2.30
2017-12-08T11:06:05.477Z,2.00
2017-12-08T11:08:31.835Z,2.50
2017-12-08T11:10:58.982Z,3.23
2017-12-08T11:13:25.238Z,3.13
2017-12-08T11:15:51.610Z,3.47
2017-12-08T11:18:17.966Z,2.40
2017-12-08T11:20:45.027Z,2.73
2017-12-08T11:23:12.077Z,2.33
2017-12-08T11:25:38.411Z,2.77
2017-12-08T11:28:04.717Z,2.13
2017-12-08T11:30:31.039Z,2.40
2017-12-08T11:32:57.387Z,1.70
2017-12-08T11:35:24.458Z,1.70
2017-12-08T11:37:50.791Z,2.00
2017-12-08T11:40:17.106Z,1.80
2017-12-08T11:42:44.174Z,2.03
2017-12-08T11:45:10.458Z,2.07
2017-12-08T11:47:36.793Z,2.57
2017-12-08T11:50:03.118Z,2.23
2017-12-08T11:52:29.431Z,2.27
2017-12-08T11:54:55.750Z,2.27
2017-12-08T11:57:22.027Z,2.33
2017-12-08T11:59:49.223Z,2.10
2017-12-08T12:02:15.526Z,2.40
2017-12-08T12:04:42.094Z,3.43
2017-12-08T12:07:08.526Z,2.07
2017-12-08T12:09:34.858Z,1.80
2017-12-08T12:12:01.199Z,2.17
2017-12-08T12:14:27.458Z,1.80
2017-12-08T12:16:53.735Z,2.23
2017-12-08T12:19:20.016Z,2.07
2017-12-08T12:21:47.029Z,1.90
2017-12-08T12:24:13.361Z,2.30
2017-12-08T12:26:39.651Z,1.57
2017-12-08T12:29:05.960Z,1.60
2017-12-08T12:31:32.995Z,2.20
2017-12-08T12:34:00.388Z,1.80
2017-12-08T12:36:26.675Z,1.70
2017-12-08T12:38:53.708Z,2.30
2017-12-08T12:41:19.978Z,2.40
2017-12-08T12:43:46.995Z,2.47
2017-12-08T12:46:13.311Z,1.70
2017-12-08T12:48:39.655Z,1.80
2017-12-08T12:51:06.071Z,2.60
2017-12-08T12:53:32.402Z,1.90
2017-12-08T12:55:58.741Z,2.10
2017-12-08T12:58:25.149Z,1.70
2017-12-08T13:00:51.503Z,2.13
2017-12-08T13:03:17.820Z,2.50
2017-12-08T13:05:44.135Z,2.27
2017-12-08T13:08:10.473Z,2.30
2017-12-08T13:10:36.796Z,1.50
2017-12-08T13:13:03.112Z,2.40
2017-12-08T13:15:29.421Z,1.47
2017-12-08T13:17:56.454Z,2.20
2017-12-08T13:20:22.764Z,1.80
2017-12-08T13:22:48.976Z,2.23
2017-12-08T13:25:15.227Z,1.70
2017-12-08T13:27:41.454Z,2.93
2017-12-08T13:30:07.677Z,2.03
2017-12-08T13:32:33.907Z,2.43
2017-12-08T13:35:00.117Z,2.43
2017-12-08T13:37:26.343Z,2.27
2017-12-08T13:39:52.547Z,2.60
2017-12-08T13:42:20.287Z,2.80
2017-12-08T13:44:46.490Z,1.83
2017-12-08T13:47:12.678Z,1.93
2017-12-08T13:49:38.866Z,1.90
2017-12-08T13:52:05.876Z,2.13
2017-12-08T13:54:44.590Z,3.23
2017-12-08T13:57:10.816Z,2.60
2017-12-08T13:59:37.023Z,2.10
2017-12-08T14:02:03.256Z,2.23
2017-12-08T14:04:29.530Z,2.53
2017-12-08T14:06:55.798Z,1.60
2017-12-08T14:09:22.743Z,1.10
2017-12-08T14:11:49.707Z,1.37
2017-12-08T14:14:15.920Z,1.57
2017-12-08T14:16:42.888Z,1.20
2017-12-08T14:19:09.165Z,1.33
2017-12-08T14:21:36.095Z,1.17
2017-12-08T14:24:02.251Z,1.53
2017-12-08T14:26:29.195Z,2.07
2017-12-08T14:28:56.175Z,2.20
2017-12-08T14:31:22.300Z,1.70
2017-12-08T14:33:48.530Z,1.30
2017-12-08T14:36:14.750Z,1.27
2017-12-08T14:38:40.994Z,1.10
2017-12-08T14:41:07.225Z,1.50
2017-12-08T14:43:33.454Z,1.40
2017-12-08T14:45:59.680Z,2.07
2017-12-08T14:48:25.851Z,1.20
2017-12-08T14:50:52.000Z,1.30
2017-12-08T14:53:18.165Z,1.43
2017-12-08T14:55:44.383Z,1.37
2017-12-08T14:58:10.564Z,1.13
2017-12-08T15:00:36.752Z,1.43
2017-12-08T15:03:03.193Z,1.10
2017-12-08T15:05:29.332Z,1.20
2017-12-08T15:07:55.553Z,1.10
2017-12-08T15:10:21.849Z,1.43
2017-12-08T15:12:48.111Z,1.07
2017-12-08T15:15:14.308Z,0.90
2017-12-08T15:17:40.509Z,1.20
2017-12-08T15:20:07.455Z,1.27
2017-12-08T15:22:34.347Z,1.10
2017-12-08T15:25:00.564Z,1.00
2017-12-08T15:27:26.755Z,0.90
2017-12-08T15:29:53.739Z,1.73
2017-12-08T15:32:20.008Z,1.63
2017-12-08T15:34:46.255Z,1.93
2017-12-08T15:37:12.540Z,1.33
2017-12-08T15:39:38.753Z,1.17
2017-12-08T15:42:04.935Z,1.20
2017-12-08T15:44:31.164Z,1.30
2017-12-08T15:46:58.117Z,1.40
2017-12-08T15:49:25.094Z,1.30
2017-12-08T15:51:51.308Z,1.10
2017-12-08T15:54:18.286Z,1.20
2017-12-08T15:56:44.500Z,1.10
2017-12-08T15:59:10.689Z,1.27
2017-12-08T16:01:36.911Z,1.10
2017-12-08T16:04:03.182Z,1.70
2017-12-08T16:06:29.418Z,1.03
2017-12-08T16:08:55.631Z,1.17
2017-12-08T16:11:21.863Z,1.53
2017-12-08T16:13:48.166Z,0.80
2017-12-08T16:16:15.130Z,1.20
2017-12-08T16:18:41.336Z,0.90
2017-12-08T16:21:07.614Z,1.70
2017-12-08T16:23:33.834Z,1.10
2017-12-08T16:26:00.109Z,1.33
2017-12-08T16:28:26.376Z,1.40
2017-12-08T16:30:52.663Z,1.47
2017-12-08T16:33:18.895Z,1.53
2017-12-08T16:35:45.138Z,1.87
2017-12-08T16:38:12.083Z,1.53
2017-12-08T16:40:39.062Z,1.10
2017-12-08T16:43:05.298Z,1.13
2017-12-08T16:45:31.544Z,1.20
2017-12-08T16:47:57.718Z,1.33
2017-12-08T16:50:23.951Z,1.30
2017-12-08T16:52:50.944Z,1.57
2017-12-08T16:55:17.799Z,2.03
2017-12-08T16:57:43.984Z,1.30
2017-12-08T17:00:10.148Z,1.33
2017-12-08T17:02:36.282Z,1.37
2017-12-08T17:05:02.495Z,1.40
2017-12-08T17:07:28.731Z,1.37
2017-12-08T17:09:54.918Z,1.33
2017-12-08T17:12:21.155Z,1.63
2017-12-08T17:14:47.372Z,1.20
2017-12-08T17:17:13.575Z,1.57
2017-12-08T17:19:40.480Z,1.50
2017-12-08T17:22:06.693Z,1.60
2017-12-08T17:24:32.913Z,2.20
2017-12-08T17:26:59.114Z,2.70
2017-12-08T17:29:26.152Z,3.13
2017-12-08T17:31:53.188Z,2.87
2017-12-08T17:34:20.103Z,2.50
2017-12-08T17:36:46.350Z,3.83
2017-12-08T17:39:12.616Z,2.30
2017-12-08T17:41:39.576Z,2.37
2017-12-08T17:44:05.792Z,8.83
2017-12-08T17:46:32.758Z,4.60
2017-12-08T17:48:58.887Z,2.20
2017-12-08T17:51:25.015Z,1.80
2017-12-08T17:53:51.199Z,2.20
2017-12-08T17:56:18.171Z,1.97
2017-12-08T17:58:44.406Z,2.83
2017-12-08T18:01:10.626Z,2.80
2017-12-08T18:03:37.650Z,2.87
2017-12-08T18:06:04.619Z,2.47
2017-12-08T18:08:31.622Z,2.03
2017-12-08T18:10:57.872Z,2.03
2017-12-08T18:13:24.824Z,3.00
2017-12-08T18:15:51.828Z,2.80
2017-12-08T18:18:18.063Z,4.07
2017-12-08T18:20:44.254Z,4.20
2017-12-08T18:23:10.494Z,3.60
2017-12-08T18:25:36.656Z,3.03
2017-12-08T18:28:02.889Z,2.90
2017-12-08T18:30:29.172Z,3.20
2017-12-08T18:35:48.448Z,2.90
2017-12-08T18:38:14.620Z,3.13
2017-12-08T18:40:40.837Z,2.53
2017-12-08T18:43:07.050Z,2.87
2017-12-08T18:45:34.083Z,3.50
2017-12-08T18:48:00.302Z,3.07
2017-12-08T18:50:27.251Z,3.90
2017-12-08T18:52:53.420Z,3.80
2017-12-08T18:55:19.627Z,3.37
2017-12-08T18:57:46.600Z,3.60
2017-12-08T19:00:12.906Z,3.20
2017-12-08T19:02:39.104Z,3.63
2017-12-08T19:05:05.358Z,2.90
2017-12-08T19:07:32.310Z,3.37
2017-12-08T19:09:58.492Z,3.20
2017-12-08T19:12:24.718Z,2.73
2017-12-08T19:14:50.916Z,2.50
2017-12-08T19:17:17.078Z,3.00
2017-12-08T19:19:43.342Z,3.20
2017-12-08T19:22:10.322Z,5.63
2017-12-08T19:24:37.248Z,4.70
2017-12-08T19:27:04.249Z,4.13
2017-12-08T19:29:30.458Z,5.90
2017-12-08T19:31:56.691Z,4.00
2017-12-08T19:34:22.911Z,4.53
2017-12-08T19:36:49.240Z,3.90
2017-12-08T19:39:15.431Z,3.47
2017-12-08T19:41:49.405Z,3.20
2017-12-08T19:44:15.586Z,3.77
2017-12-08T19:46:41.786Z,4.13
2017-12-08T19:49:08.816Z,3.80
2017-12-08T19:51:35.026Z,4.10
2017-12-08T19:54:01.263Z,4.80
2017-12-08T19:56:27.532Z,3.27
2017-12-08T19:58:53.711Z,3.63
2017-12-08T20:01:19.912Z,3.40
2017-12-08T20:03:46.154Z,4.37
2017-12-08T20:06:12.406Z,3.67
2017-12-08T20:08:38.550Z,3.70
2017-12-08T20:11:04.759Z,3.60
2017-12-08T20:13:30.979Z,3.67
2017-12-08T20:15:57.187Z,3.77
2017-12-08T20:18:23.451Z,4.10
2017-12-08T20:20:49.705Z,4.30
2017-12-08T20:23:16.722Z,4.23
2017-12-08T20:25:42.920Z,4.33
2017-12-08T20:28:09.098Z,4.70
2017-12-08T20:30:36.037Z,4.87
2017-12-08T20:33:02.245Z,4.80
2017-12-08T20:35:29.476Z,5.53
2017-12-08T20:37:55.716Z,4.93
2017-12-08T20:40:22.945Z,4.77
2017-12-08T20:42:49.195Z,5.10
2017-12-08T20:45:15.457Z,4.50
2017-12-08T20:47:42.410Z,5.30
2017-12-08T20:50:09.339Z,4.63
2017-12-08T20:52:36.269Z,4.97
2017-12-08T20:55:04.406Z,4.73
2017-12-08T20:57:33.945Z,6.63
2017-12-08T21:00:00.110Z,10.83
2017-12-08T21:02:27.044Z,6.30
2017-12-08T21:04:53.215Z,5.40
2017-12-08T21:07:19.377Z,5.70
2017-12-08T21:09:45.565Z,7.70
2017-12-08T21:12:11.810Z,10.33
2017-12-08T21:14:37.982Z,6.43
2017-12-08T21:17:04.247Z,6.07
2017-12-08T21:19:30.453Z,5.10
2017-12-08T21:21:57.359Z,6.10
2017-12-08T21:24:23.559Z,5.03
2017-12-08T21:26:49.811Z,8.20
2017-12-08T21:29:16.063Z,12.40
2017-12-08T21:31:42.964Z,7.50
2017-12-08T21:34:09.168Z,6.23
2017-12-08T21:36:35.323Z,6.60
2017-12-08T21:39:01.575Z,5.60
2017-12-08T21:41:28.551Z,6.00
2017-12-08T21:43:55.545Z,4.13
2017-12-08T21:46:21.723Z,5.07
2017-12-08T21:48:48.652Z,5.57
2017-12-08T21:51:15.600Z,4.50
2017-12-08T21:53:42.540Z,6.13
2017-12-08T21:56:09.787Z,5.70
2017-12-08T21:58:35.991Z,4.70
2017-12-08T22:01:02.190Z,4.00
2017-12-08T22:03:28.450Z,4.70
2017-12-08T22:05:54.695Z,4.90
2017-12-08T22:08:20.867Z,4.80
2017-12-08T22:10:47.167Z,5.40
2017-12-08T22:13:13.395Z,5.07
2017-12-08T22:15:39.654Z,5.50
2017-12-08T22:18:05.823Z,4.63
2017-12-08T22:20:32.036Z,4.80
2017-12-08T22:22:58.211Z,4.00
2017-12-08T22:25:25.167Z,4.60
2017-12-08T22:27:52.100Z,4.80
2017-12-08T22:30:19.062Z,4.70
2017-12-08T22:32:46.018Z,4.57
2017-12-08T22:35:12.242Z,4.03
2017-12-08T22:37:38.459Z,5.20
2017-12-08T22:40:05.417Z,4.97
2017-12-08T22:42:32.402Z,4.37
2017-12-08T22:44:58.619Z,4.57
2017-12-08T22:47:24.758Z,4.20
2017-12-08T22:49:50.960Z,4.83
2017-12-08T22:52:17.167Z,4.97
2017-12-08T22:54:44.216Z,5.00
2017-12-08T22:57:11.166Z,5.37
2017-12-08T22:59:37.372Z,4.80
2017-12-08T23:02:04.311Z,5.20
2017-12-08T23:04:31.251Z,4.70
2017-12-08T23:06:57.446Z,4.93
2017-12-08T23:09:23.650Z,4.90
2017-12-08T23:11:49.815Z,5.27
2017-12-08T23:14:16.051Z,4.90
2017-12-08T23:16:43.061Z,5.20
2017-12-08T23:19:09.243Z,5.03
2017-12-08T23:21:36.134Z,4.57
2017-12-08T23:24:02.374Z,4.80
2017-12-08T23:26:28.567Z,5.50
2017-12-08T23:28:55.526Z,4.80
2017-12-08T23:31:21.788Z,4.90
2017-12-08T23:33:48.722Z,5.10
2017-12-08T23:36:14.932Z,4.67
2017-12-08T23:38:41.104Z,5.13
2017-12-08T23:41:07.276Z,4.50
2017-12-08T23:43:33.511Z,4.57
2017-12-08T23:45:59.728Z,4.47
2017-12-08T23:48:25.891Z,4.43
2017-12-08T23:50:52.069Z,4.30
2017-12-08T23:53:18.992Z,4.87
2017-12-08T23:55:52.208Z,4.40
2017-12-08T23:58:19.151Z,5.53
